createdAt,value
2017-10-27T00:00:17.641Z,2.3
2017-10-27T00:02:17.557Z,2.8
2017-10-27T00:04:17.459Z,2.5
2017-10-27T00:06:17.362Z,1.9
2017-10-27T00:08:17.292Z,2.5
2017-10-27T00:10:17.208Z,2
2017-10-27T00:12:17.093Z,2.5
2017-10-27T00:14:17.017Z,1.7
2017-10-27T00:16:17.940Z,1.6
2017-10-27T00:18:16.849Z,2.3
2017-10-27T00:20:16.758Z,2.3
2017-10-27T00:22:16.704Z,2.1
2017-10-27T00:24:17.615Z,1.8
2017-10-27T00:26:17.552Z,1.9
2017-10-27T00:28:17.448Z,2.4
2017-10-27T00:30:17.370Z,2.1
2017-10-27T00:32:17.287Z,1.8
2017-10-27T00:34:17.218Z,2.1
2017-10-27T00:36:17.149Z,2.2
2017-10-27T00:38:17.070Z,1.9
2017-10-27T00:40:17.983Z,2
2017-10-27T00:42:16.887Z,1.9
2017-10-27T00:44:16.802Z,1.5
2017-10-27T00:46:17.696Z,1.4
2017-10-27T00:48:17.609Z,2
2017-10-27T00:50:17.531Z,1.5
2017-10-27T00:52:17.437Z,2.1
2017-10-27T00:54:17.360Z,1.8
2017-10-27T00:56:18.256Z,1.9
2017-10-27T00:58:17.191Z,1.9
2017-10-27T01:00:17.067Z,2.1
2017-10-27T01:02:16.966Z,1.8
2017-10-27T01:04:16.902Z,2
2017-10-27T01:06:17.823Z,2.2
2017-10-27T01:08:16.738Z,2
2017-10-27T01:10:17.619Z,2.2
2017-10-27T01:12:17.529Z,1.6
2017-10-27T01:14:17.460Z,1.9
2017-10-27T01:16:17.333Z,1.9
2017-10-27T01:18:18.238Z,1.8
2017-10-27T01:20:17.164Z,1.7
2017-10-27T01:22:17.062Z,1.3
2017-10-27T01:24:16.969Z,1.5
2017-10-27T01:26:16.859Z,1.7
2017-10-27T01:28:16.745Z,1.8
2017-10-27T01:30:17.658Z,1.4
2017-10-27T01:32:17.566Z,1.5
2017-10-27T01:34:17.447Z,1.7
2017-10-27T01:36:18.343Z,1.5
2017-10-27T01:38:17.229Z,1.1
2017-10-27T01:40:18.103Z,1.3
2017-10-27T01:42:16.984Z,1.4
2017-10-27T01:44:16.864Z,1.4
2017-10-27T01:46:17.785Z,1.3
2017-10-27T01:48:16.657Z,1
2017-10-27T01:50:17.546Z,1.2
2017-10-27T01:52:17.421Z,1.3
2017-10-27T01:54:17.322Z,1.1
2017-10-27T01:56:17.205Z,1.3
2017-10-27T01:58:17.099Z,1
2017-10-27T02:00:16.980Z,1.1
2017-10-27T02:02:16.864Z,1.3
2017-10-27T02:04:16.770Z,1.2
2017-10-27T02:06:17.668Z,1.4
2017-10-27T02:08:17.567Z,1.4
2017-10-27T02:10:17.484Z,1
2017-10-27T02:12:17.401Z,0.9
2017-10-27T02:14:17.286Z,1.3
2017-10-27T02:16:18.211Z,1
2017-10-27T02:18:17.122Z,1.7
2017-10-27T02:20:17.010Z,0.8
2017-10-27T02:22:16.921Z,1.2
2017-10-27T02:24:16.818Z,1
2017-10-27T02:26:17.708Z,1.5
2017-10-27T02:28:17.601Z,0.7
2017-10-27T02:30:21.503Z,1.1
2017-10-27T02:32:17.415Z,0.8
2017-10-27T02:34:17.313Z,1.1
2017-10-27T02:36:18.203Z,0.9
2017-10-27T02:38:17.125Z,0.8
2017-10-27T02:40:18.012Z,1.5
2017-10-27T02:42:16.903Z,1.2
2017-10-27T02:44:16.813Z,1.1
2017-10-27T02:46:17.707Z,0.9
2017-10-27T02:48:17.613Z,1
2017-10-27T02:50:17.493Z,1.3
2017-10-27T02:52:17.404Z,0.9
2017-10-27T02:54:17.284Z,0.9
2017-10-27T02:56:17.200Z,1.1
2017-10-27T02:58:17.081Z,1.4
2017-10-27T03:00:16.975Z,1.3
2017-10-27T03:02:16.861Z,1.1
2017-10-27T03:04:16.749Z,1
2017-10-27T03:06:17.651Z,0.8
2017-10-27T03:08:17.564Z,0.7
2017-10-27T03:10:17.443Z,1.1
2017-10-27T03:12:17.320Z,0.9
2017-10-27T03:14:17.208Z,1.2
2017-10-27T03:16:18.078Z,1.4
2017-10-27T03:18:16.967Z,1
2017-10-27T03:20:17.856Z,0.8
2017-10-27T03:22:16.737Z,1.2
2017-10-27T03:24:16.613Z,1
2017-10-27T03:26:17.470Z,1.1
2017-10-27T03:28:17.342Z,0.7
2017-10-27T03:30:17.230Z,1.1
2017-10-27T03:32:17.118Z,1.1
2017-10-27T03:34:16.978Z,1.2
2017-10-27T03:36:17.858Z,1.5
2017-10-27T03:38:16.758Z,1
2017-10-27T03:40:17.635Z,1.1
2017-10-27T03:42:17.506Z,1
2017-10-27T03:44:17.409Z,0.8
2017-10-27T03:46:18.278Z,1.2
2017-10-27T03:48:17.176Z,1.1
2017-10-27T03:50:17.057Z,0.9
2017-10-27T03:52:16.972Z,1.3
2017-10-27T03:54:16.869Z,1
2017-10-27T03:56:17.721Z,1.3
2017-10-27T03:58:17.600Z,1.5
2017-10-27T04:00:17.474Z,1.4
2017-10-27T04:02:17.379Z,1.3
2017-10-27T04:04:17.295Z,1.4
2017-10-27T04:06:17.159Z,1.2
2017-10-27T04:08:17.056Z,0.9
2017-10-27T04:10:17.917Z,0.8
2017-10-27T04:12:16.804Z,1.2
2017-10-27T04:14:16.679Z,0.9
2017-10-27T04:16:17.571Z,1.2
2017-10-27T04:18:17.475Z,0.7
2017-10-27T04:20:17.370Z,1.1
2017-10-27T04:22:17.270Z,1.1
2017-10-27T04:24:17.135Z,1.1
2017-10-27T04:26:18.005Z,1.3
2017-10-27T04:28:16.884Z,1.3
2017-10-27T04:30:16.742Z,1.1
2017-10-27T04:32:16.628Z,0.9
2017-10-27T04:34:17.504Z,1.5
2017-10-27T04:36:17.379Z,1.2
2017-10-27T04:38:17.283Z,1.1
2017-10-27T04:40:17.175Z,1.1
2017-10-27T04:42:17.059Z,1.6
2017-10-27T04:44:16.963Z,1.1
2017-10-27T04:46:16.837Z,1.1
2017-10-27T04:48:16.727Z,1.4
2017-10-27T04:50:21.587Z,1.2
2017-10-27T04:52:17.491Z,1.3
2017-10-27T04:54:17.376Z,1.1
2017-10-27T04:56:17.268Z,1.1
2017-10-27T04:58:17.139Z,1.9
2017-10-27T05:00:16.994Z,1.2
2017-10-27T05:02:16.877Z,1.1
2017-10-27T05:04:16.751Z,1.4
2017-10-27T05:06:17.645Z,1.3
2017-10-27T05:08:17.527Z,1.1
2017-10-27T05:10:17.387Z,1.6
2017-10-27T05:14:17.141Z,1
2017-10-27T05:16:16.994Z,1.1
2017-10-27T05:18:20.831Z,1.2
2017-10-27T05:20:16.731Z,1.6
2017-10-27T05:22:17.586Z,1.3
2017-10-27T05:24:17.456Z,1.7
2017-10-27T05:26:17.316Z,1.8
2017-10-27T05:28:17.188Z,1.8
2017-10-27T05:30:17.051Z,1.7
2017-10-27T05:32:16.924Z,1.2
2017-10-27T05:34:16.784Z,1.3
2017-10-27T05:36:17.653Z,1.3
2017-10-27T05:38:17.519Z,1.4
2017-10-27T05:40:17.380Z,1.3
2017-10-27T05:42:17.261Z,1.2
2017-10-27T05:44:17.139Z,1.8
2017-10-27T05:46:17.014Z,1.5
2017-10-27T05:48:16.842Z,1.3
2017-10-27T05:50:16.699Z,1.1
2017-10-27T05:52:17.555Z,1.2
2017-10-27T05:54:17.424Z,1.4
2017-10-27T05:56:17.284Z,1.5
2017-10-27T05:58:17.114Z,1.5
2017-10-27T06:00:16.976Z,1.2
2017-10-27T06:02:16.814Z,1.3
2017-10-27T06:04:16.652Z,1.2
2017-10-27T06:06:17.521Z,1.6
2017-10-27T06:08:17.365Z,1.1
2017-10-27T06:10:17.211Z,1.4
2017-10-27T06:12:17.075Z,1.2
2017-10-27T06:14:16.930Z,1.4
2017-10-27T06:16:17.783Z,1.4
2017-10-27T06:18:17.642Z,1.7
2017-10-27T06:20:17.508Z,1.1
2017-10-27T06:22:17.365Z,1.3
2017-10-27T06:24:17.228Z,1.1
2017-10-27T06:26:18.074Z,1.1
2017-10-27T06:28:16.931Z,1.3
2017-10-27T06:30:16.800Z,1
2017-10-27T06:32:16.653Z,1.3
2017-10-27T06:34:17.514Z,1.1
2017-10-27T06:36:17.340Z,1
2017-10-27T06:38:17.204Z,1.3
2017-10-27T06:40:18.077Z,1.1
2017-10-27T06:42:16.928Z,1.1
2017-10-27T06:44:16.782Z,1.4
2017-10-27T06:46:17.632Z,1.2
2017-10-27T06:48:17.498Z,1.3
2017-10-27T06:50:17.353Z,1.3
2017-10-27T06:52:17.234Z,0.9
2017-10-27T06:54:17.065Z,1.3
2017-10-27T06:56:16.918Z,1.1
2017-10-27T06:58:16.780Z,1.2
2017-10-27T07:00:16.608Z,0.8
2017-10-27T07:02:17.467Z,1.3
2017-10-27T07:04:17.338Z,1.1
2017-10-27T07:06:17.177Z,1
2017-10-27T07:08:17.047Z,1.1
2017-10-27T07:10:17.898Z,0.8
2017-10-27T07:12:16.752Z,2.3
2017-10-27T07:14:16.598Z,1.3
2017-10-27T07:16:17.458Z,1.3
2017-10-27T07:18:21.292Z,1.3
2017-10-27T07:20:17.195Z,1.2
2017-10-27T07:22:17.059Z,0.9
2017-10-27T07:24:16.901Z,1
2017-10-27T07:26:17.739Z,1
2017-10-27T07:28:17.552Z,1.1
2017-10-27T07:30:17.416Z,1
2017-10-27T07:32:17.263Z,0.7
2017-10-27T07:34:17.107Z,0.6
2017-10-27T07:36:16.948Z,1
2017-10-27T07:38:16.805Z,1
2017-10-27T07:40:17.652Z,2.4
2017-10-27T07:42:17.484Z,0.7
2017-10-27T07:44:17.342Z,0.7
2017-10-27T07:46:17.183Z,0.7
2017-10-27T07:48:17.058Z,1.1
2017-10-27T07:50:16.893Z,1
2017-10-27T07:52:16.751Z,1.3
2017-10-27T07:54:16.609Z,0.8
2017-10-27T07:56:17.466Z,0.8
2017-10-27T07:58:17.295Z,0.8
2017-10-27T08:00:17.157Z,1.3
2017-10-27T08:02:17.027Z,0.8
2017-10-27T08:04:16.887Z,1.1
2017-10-27T08:06:16.752Z,0.6
2017-10-27T08:08:16.576Z,0.8
2017-10-27T08:10:17.432Z,0.8
2017-10-27T08:12:17.262Z,0.9
2017-10-27T08:14:17.121Z,0.8
2017-10-27T08:16:18.003Z,1
2017-10-27T08:18:17.861Z,0.9
2017-10-27T08:20:16.708Z,0.7
2017-10-27T08:22:17.569Z,1.1
2017-10-27T08:24:17.403Z,1.2
2017-10-27T08:26:17.288Z,0.9
2017-10-27T08:28:17.148Z,1.2
2017-10-27T08:30:17.005Z,0.8
2017-10-27T08:32:16.878Z,0.8
2017-10-27T08:34:16.745Z,0.6
2017-10-27T08:36:17.598Z,0.7
2017-10-27T08:38:17.460Z,1
2017-10-27T08:40:17.313Z,1.3
2017-10-27T08:42:17.154Z,0.6
2017-10-27T08:44:17.028Z,0.7
2017-10-27T08:46:16.873Z,0.8
2017-10-27T08:48:16.730Z,0.9
2017-10-27T08:50:17.579Z,0.9
2017-10-27T08:52:17.457Z,0.7
2017-10-27T08:54:17.317Z,0.9
2017-10-27T08:56:18.164Z,0.7
2017-10-27T08:58:17.023Z,0.6
2017-10-27T09:00:17.908Z,0.7
2017-10-27T09:02:16.745Z,0.9
2017-10-27T09:04:16.603Z,1
2017-10-27T09:06:17.480Z,0.7
2017-10-27T09:08:17.340Z,0.7
2017-10-27T09:10:17.206Z,1
2017-10-27T09:12:17.076Z,0.7
2017-10-27T09:14:16.935Z,1.1
2017-10-27T09:16:17.804Z,1.1
2017-10-27T09:18:20.632Z,0.5
2017-10-27T09:20:17.535Z,0.6
2017-10-27T09:22:17.380Z,0.8
2017-10-27T09:24:17.260Z,0.9
2017-10-27T09:26:18.105Z,1
2017-10-27T09:28:17.006Z,0.6
2017-10-27T09:30:17.841Z,0.8
2017-10-27T09:32:16.710Z,0.8
2017-10-27T09:34:17.563Z,1
2017-10-27T09:36:17.422Z,0.8
2017-10-27T09:38:17.272Z,0.8
2017-10-27T09:40:17.136Z,0.6
2017-10-27T09:42:16.995Z,0.7
2017-10-27T09:44:16.877Z,0.8
2017-10-27T09:46:16.735Z,0.4
2017-10-27T09:48:16.618Z,0.9
2017-10-27T09:50:17.492Z,0.8
2017-10-27T09:52:17.374Z,0.7
2017-10-27T09:54:17.262Z,0.6
2017-10-27T09:56:18.141Z,0.8
2017-10-27T09:58:17.035Z,0.7
2017-10-27T10:00:16.911Z,0.8
2017-10-27T10:02:16.788Z,1.1
2017-10-27T10:04:16.653Z,0.9
2017-10-27T10:06:17.540Z,0.8
2017-10-27T10:08:17.426Z,0.6
2017-10-27T10:10:17.270Z,1.1
2017-10-27T10:12:17.175Z,0.6
2017-10-27T10:14:17.053Z,0.5
2017-10-27T10:16:17.905Z,0.8
2017-10-27T10:18:16.791Z,0.8
2017-10-27T10:20:16.657Z,0.8
2017-10-27T10:22:17.521Z,0.9
2017-10-27T10:24:17.407Z,0.7
2017-10-27T10:26:18.270Z,0.7
2017-10-27T10:28:17.136Z,0.6
2017-10-27T10:30:17.016Z,0.8
2017-10-27T10:32:16.875Z,0.4
2017-10-27T10:34:16.744Z,1.5
2017-10-27T10:36:17.646Z,0.8
2017-10-27T10:38:17.506Z,0.8
2017-10-27T10:40:17.387Z,0.5
2017-10-27T10:42:17.267Z,0.9
2017-10-27T10:44:17.156Z,0.9
2017-10-27T10:46:18.050Z,0.8
2017-10-27T10:48:16.924Z,0.7
2017-10-27T10:50:16.832Z,0.6
2017-10-27T10:52:16.704Z,0.6
2017-10-27T10:54:17.577Z,0.6
2017-10-27T10:56:17.442Z,0.8
2017-10-27T10:58:17.314Z,0.7
2017-10-27T11:00:17.193Z,0.7
2017-10-27T11:02:17.064Z,0.6
2017-10-27T11:04:16.926Z,0.8
2017-10-27T11:06:17.802Z,0.7
2017-10-27T11:08:16.656Z,0.6
2017-10-27T11:10:17.528Z,0.4
2017-10-27T11:12:17.396Z,0.9
2017-10-27T11:14:17.276Z,0.9
2017-10-27T11:16:17.152Z,0.7
2017-10-27T11:18:18.007Z,0.5
2017-10-27T11:20:16.881Z,0.9
2017-10-27T11:22:16.763Z,0.7
2017-10-27T11:24:16.630Z,0.6
2017-10-27T11:26:17.484Z,0.6
2017-10-27T11:28:17.372Z,0.7
2017-10-27T11:30:17.250Z,0.9
2017-10-27T11:32:17.122Z,1.1
2017-10-27T11:34:17.000Z,0.9
2017-10-27T11:36:17.869Z,0.6
2017-10-27T11:38:16.755Z,0.8
2017-10-27T11:40:17.590Z,0.9
2017-10-27T11:42:17.464Z,0.9
2017-10-27T11:44:17.330Z,0.5
2017-10-27T11:46:18.197Z,0.8
2017-10-27T11:48:17.078Z,0.6
2017-10-27T11:50:17.938Z,1.2
2017-10-27T11:52:16.812Z,1
2017-10-27T11:54:16.718Z,0.6
2017-10-27T11:56:17.561Z,1
2017-10-27T11:58:17.449Z,1.3
2017-10-27T12:00:17.325Z,0.9
2017-10-27T12:02:17.195Z,0.7
2017-10-27T12:04:17.084Z,0.8
2017-10-27T12:06:16.949Z,0.8
2017-10-27T12:08:16.810Z,0.9
2017-10-27T12:10:17.664Z,0.5
2017-10-27T12:12:17.537Z,0.7
2017-10-27T12:14:17.384Z,0.7
2017-10-27T12:16:18.227Z,0.4
2017-10-27T12:18:21.077Z,0.3
2017-10-27T12:20:17.975Z,1
2017-10-27T12:22:16.847Z,0.9
2017-10-27T12:24:16.747Z,0.5
2017-10-27T12:26:17.593Z,0.8
2017-10-27T12:28:17.476Z,0.4
2017-10-27T12:30:17.352Z,0.7
2017-10-27T12:32:17.233Z,0.6
2017-10-27T12:34:17.120Z,0.8
2017-10-27T12:36:17.001Z,0.5
2017-10-27T12:38:16.858Z,0.6
2017-10-27T12:40:17.749Z,0.7
2017-10-27T12:42:16.616Z,0.7
2017-10-27T12:44:17.521Z,0.6
2017-10-27T12:46:17.401Z,0.7
2017-10-27T12:48:17.289Z,0.6
2017-10-27T12:50:17.175Z,0.8
2017-10-27T12:52:17.055Z,0.7
2017-10-27T12:54:16.928Z,0.9
2017-10-27T12:56:17.812Z,0.9
2017-10-27T12:58:16.735Z,0.5
2017-10-27T13:00:16.562Z,0.6
2017-10-27T13:02:17.454Z,0.6
2017-10-27T13:04:17.331Z,0.5
2017-10-27T13:06:17.199Z,0.6
2017-10-27T13:08:17.098Z,0.9
2017-10-27T13:10:17.979Z,0.7
2017-10-27T13:12:16.867Z,0.6
2017-10-27T13:14:16.750Z,1
2017-10-27T13:16:16.659Z,0.5
2017-10-27T13:18:17.537Z,0.6
2017-10-27T13:20:17.436Z,0.8
2017-10-27T13:22:17.316Z,0.3
2017-10-27T13:24:17.251Z,0.5
2017-10-27T13:26:18.118Z,0.4
2017-10-27T13:28:17.016Z,0.4
2017-10-27T13:30:16.914Z,0.5
2017-10-27T13:32:16.803Z,0.5
2017-10-27T13:34:16.678Z,0.3
2017-10-27T13:36:17.582Z,0.7
2017-10-27T13:38:17.477Z,0.5
2017-10-27T13:40:17.354Z,0.7
2017-10-27T13:42:17.239Z,0.3
2017-10-27T13:44:17.135Z,0.5
2017-10-27T13:46:18.013Z,0.7
2017-10-27T13:48:16.904Z,0.5
2017-10-27T13:50:16.760Z,0.5
2017-10-27T13:52:16.643Z,0.5
2017-10-27T13:54:17.526Z,0.7
2017-10-27T13:56:17.398Z,0.3
2017-10-27T13:58:17.307Z,0.2
2017-10-27T14:00:17.189Z,0.4
2017-10-27T14:02:17.082Z,0.2
2017-10-27T14:04:16.943Z,0.7
2017-10-27T14:06:17.809Z,0.4
2017-10-27T14:08:16.707Z,0.4
2017-10-27T14:10:17.581Z,0.4
2017-10-27T14:12:17.466Z,0.3
2017-10-27T14:14:17.333Z,0.8
2017-10-27T14:16:18.223Z,0.7
2017-10-27T14:18:18.059Z,0.4
2017-10-27T14:20:16.959Z,0.6
2017-10-27T14:22:16.833Z,0.5
2017-10-27T14:24:16.725Z,0.3
2017-10-27T14:26:17.598Z,0.4
2017-10-27T14:28:17.486Z,0.5
2017-10-27T14:30:17.375Z,0.3
2017-10-27T14:32:17.274Z,0.4
2017-10-27T14:34:17.150Z,0.3
2017-10-27T14:36:17.050Z,0.3
2017-10-27T14:38:16.927Z,0.5
2017-10-27T14:40:17.821Z,0.5
2017-10-27T14:42:16.733Z,0.7
2017-10-27T14:44:16.629Z,0.5
2017-10-27T14:46:17.532Z,0.4
2017-10-27T14:48:17.417Z,0.5
2017-10-27T14:50:17.320Z,0.4
2017-10-27T14:52:17.219Z,0.4
2017-10-27T14:54:17.117Z,0.4
2017-10-27T14:56:16.988Z,0.2
2017-10-27T14:58:16.895Z,0.4
2017-10-27T15:00:16.805Z,0.3
2017-10-27T15:02:16.703Z,0.3
2017-10-27T15:04:17.579Z,0.4
2017-10-27T15:06:17.484Z,0.3
2017-10-27T15:08:17.367Z,0.4
2017-10-27T15:10:17.258Z,0.3
2017-10-27T15:12:17.151Z,0.3
2017-10-27T15:14:17.058Z,0.5
2017-10-27T15:16:17.967Z,0.4
2017-10-27T15:18:16.891Z,0.3
2017-10-27T15:20:16.794Z,0.4
2017-10-27T15:22:16.711Z,0.5
2017-10-27T15:24:17.604Z,0.6
2017-10-27T15:26:17.531Z,0.3
2017-10-27T15:28:17.428Z,0.5
2017-10-27T15:30:17.325Z,0.5
2017-10-27T15:32:17.262Z,0.5
2017-10-27T15:34:17.148Z,0.4
2017-10-27T15:36:18.081Z,0.6
2017-10-27T15:38:16.982Z,0.7
2017-10-27T15:40:17.891Z,0.6
2017-10-27T15:42:16.788Z,0.7
2017-10-27T15:44:16.683Z,0.5
2017-10-27T15:46:17.563Z,0.5
2017-10-27T15:48:17.472Z,0.3
2017-10-27T15:50:17.371Z,0.4
2017-10-27T15:52:17.276Z,0.4
2017-10-27T15:54:17.160Z,0.5
2017-10-27T15:56:17.043Z,0.4
2017-10-27T15:58:16.938Z,0.3
2017-10-27T16:00:16.840Z,0.5
2017-10-27T16:02:16.747Z,0.5
2017-10-27T16:04:16.607Z,0.4
2017-10-27T16:06:17.488Z,0.3
2017-10-27T16:08:17.373Z,0.2
2017-10-27T16:10:17.251Z,0.5
2017-10-27T16:12:17.127Z,0.5
2017-10-27T16:14:17.007Z,0.7
2017-10-27T16:16:17.896Z,0.3
2017-10-27T16:18:17.770Z,0.6
2017-10-27T16:20:16.633Z,0.6
2017-10-27T16:22:17.536Z,0.6
2017-10-27T16:24:17.409Z,0.6
2017-10-27T16:26:17.281Z,2.2
2017-10-27T16:28:17.146Z,2.8
2017-10-27T16:30:20.997Z,1.3
2017-10-27T16:32:16.871Z,0.6
2017-10-27T16:34:16.750Z,0.6
2017-10-27T16:36:17.615Z,1
2017-10-27T16:38:17.483Z,0.8
2017-10-27T16:40:17.345Z,0.4
2017-10-27T16:42:17.225Z,0.7
2017-10-27T16:44:17.075Z,1.3
2017-10-27T16:46:16.955Z,1.6
2017-10-27T16:48:16.846Z,1.8
2017-10-27T16:50:16.709Z,0.7
2017-10-27T16:52:17.585Z,0.5
2017-10-27T16:54:17.437Z,0.6
2017-10-27T16:56:17.315Z,0.5
2017-10-27T16:58:17.170Z,0.7
2017-10-27T17:00:21.008Z,0.7
2017-10-27T17:02:16.881Z,0.8
2017-10-27T17:04:16.754Z,0.5
2017-10-27T17:06:17.643Z,0.6
2017-10-27T17:08:17.533Z,0.7
2017-10-27T17:10:17.392Z,1
2017-10-27T17:12:17.256Z,0.5
2017-10-27T17:14:17.130Z,0.6
2017-10-27T17:16:18.016Z,1.1
2017-10-27T17:18:20.881Z,1
2017-10-27T17:20:16.776Z,0.7
2017-10-27T17:22:16.645Z,0.9
2017-10-27T17:24:17.550Z,0.8
2017-10-27T17:26:17.402Z,0.7
2017-10-27T17:28:17.283Z,0.7
2017-10-27T17:30:17.168Z,0.5
2017-10-27T17:32:17.041Z,0.7
2017-10-27T17:34:16.918Z,1.1
2017-10-27T17:36:17.800Z,0.5
2017-10-27T17:38:16.682Z,0.6
2017-10-27T17:40:17.578Z,0.9
2017-10-27T17:42:17.440Z,0.7
2017-10-27T17:44:17.327Z,1
2017-10-27T17:46:17.208Z,0.7
2017-10-27T17:48:17.082Z,0.8
2017-10-27T17:50:16.958Z,0.5
2017-10-27T17:52:16.824Z,1
2017-10-27T17:54:16.701Z,0.6
2017-10-27T17:56:17.563Z,0.4
2017-10-27T17:58:17.430Z,0.3
2017-10-27T18:00:17.298Z,0.4
2017-10-27T18:02:17.150Z,1
2017-10-27T18:04:17.007Z,0.4
2017-10-27T18:06:16.870Z,0.4
2017-10-27T18:08:16.738Z,0.4
2017-10-27T18:10:17.591Z,0.5
2017-10-27T18:12:17.469Z,0.5
2017-10-27T18:14:17.305Z,0.3
2017-10-27T18:16:17.172Z,0.6
2017-10-27T18:18:18.014Z,0.7
2017-10-27T18:20:16.869Z,0.5
2017-10-27T18:22:16.705Z,0.6
2017-10-27T18:24:17.538Z,0.4
2017-10-27T18:26:17.383Z,0.3
2017-10-27T18:28:17.242Z,0.3
2017-10-27T18:30:17.087Z,0.3
2017-10-27T18:32:16.941Z,0.4
2017-10-27T18:34:16.798Z,0.6
2017-10-27T18:36:17.614Z,0.7
2017-10-27T18:38:17.474Z,0.5
2017-10-27T18:40:17.339Z,0.3
2017-10-27T18:42:18.167Z,0.6
2017-10-27T18:44:17.008Z,0.6
2017-10-27T18:46:17.851Z,0.5
2017-10-27T18:48:16.712Z,0.5
2017-10-27T18:50:17.567Z,0.5
2017-10-27T18:52:17.413Z,1.1
2017-10-27T18:54:17.254Z,1.6
2017-10-27T18:56:17.108Z,0.6
2017-10-27T18:58:16.968Z,0.5
2017-10-27T19:00:16.839Z,0.5
2017-10-27T19:02:16.705Z,0.7
2017-10-27T19:04:17.553Z,0.5
2017-10-27T19:06:17.412Z,0.5
2017-10-27T19:08:17.256Z,0.5
2017-10-27T19:10:17.136Z,0.7
2017-10-27T19:12:16.992Z,0.5
2017-10-27T19:14:16.857Z,0.9
2017-10-27T19:16:17.694Z,0.8
2017-10-27T19:18:16.568Z,0.6
2017-10-27T19:20:17.445Z,0.7
2017-10-27T19:22:17.312Z,1.3
2017-10-27T19:24:17.136Z,1
2017-10-27T19:26:17.983Z,1.1
2017-10-27T19:28:16.869Z,1.3
2017-10-27T19:30:16.728Z,1.7
2017-10-27T19:32:16.545Z,1.1
2017-10-27T19:34:17.408Z,0.9
2017-10-27T19:36:17.255Z,1.4
2017-10-27T19:38:17.105Z,0.6
2017-10-27T19:40:17.979Z,0.5
2017-10-27T19:42:16.844Z,0.7
2017-10-27T19:44:16.719Z,0.8
2017-10-27T19:46:17.582Z,0.6
2017-10-27T19:48:17.408Z,0.7
2017-10-27T19:50:17.277Z,0.6
2017-10-27T19:52:17.133Z,0.7
2017-10-27T19:54:16.982Z,0.7
2017-10-27T19:56:16.857Z,0.7
2017-10-27T19:58:16.723Z,0.7
2017-10-27T20:00:17.581Z,1.3
2017-10-27T20:02:17.455Z,4.1
2017-10-27T20:04:17.322Z,2.6
2017-10-27T20:06:17.163Z,1.4
2017-10-27T20:08:17.021Z,1
2017-10-27T20:10:17.877Z,1.5
2017-10-27T20:12:16.749Z,1.1
2017-10-27T20:14:16.614Z,0.9
2017-10-27T20:16:17.463Z,2.2
2017-10-27T20:18:21.304Z,1.2
2017-10-27T20:20:17.206Z,1.8
2017-10-27T20:22:17.053Z,1.1
2017-10-27T20:24:16.920Z,2.1
2017-10-27T20:26:16.767Z,1.7
2017-10-27T20:28:16.654Z,1.3
2017-10-27T20:30:18.524Z,1.8
2017-10-27T20:32:17.393Z,0.8
2017-10-27T20:34:17.261Z,0.7
2017-10-27T20:36:17.097Z,1.5
2017-10-27T20:38:16.971Z,0.8
2017-10-27T20:40:17.854Z,0.7
2017-10-27T20:42:16.714Z,0.9
2017-10-27T20:44:17.570Z,0.8
2017-10-27T20:46:17.446Z,0.9
2017-10-27T20:48:17.268Z,0.7
2017-10-27T20:50:17.171Z,0.5
2017-10-27T20:52:16.986Z,0.6
2017-10-27T20:54:16.851Z,0.9
2017-10-27T20:56:17.679Z,0.8
2017-10-27T20:58:17.525Z,0.8
2017-10-27T21:00:17.372Z,0.7
2017-10-27T21:02:17.229Z,0.9
2017-10-27T21:04:17.073Z,0.7
2017-10-27T21:06:17.935Z,1
2017-10-27T21:08:16.769Z,1.1
2017-10-27T21:10:17.627Z,0.9
2017-10-27T21:12:17.467Z,0.9
2017-10-27T21:14:17.294Z,1
2017-10-27T21:16:18.151Z,1.1
2017-10-27T21:18:17.988Z,0.9
2017-10-27T21:20:16.859Z,0.5
2017-10-27T21:22:16.727Z,0.7
2017-10-27T21:24:17.545Z,0.8
2017-10-27T21:26:17.358Z,0.7
2017-10-27T21:28:17.203Z,0.8
2017-10-27T21:30:17.010Z,0.6
2017-10-27T21:32:16.885Z,0.7
2017-10-27T21:34:16.721Z,0.6
2017-10-27T21:36:17.567Z,0.5
2017-10-27T21:38:17.419Z,0.8
2017-10-27T21:40:17.251Z,0.7
2017-10-27T21:42:17.086Z,0.8
2017-10-27T21:44:16.939Z,0.7
2017-10-27T21:46:17.781Z,0.9
2017-10-27T21:48:16.611Z,0.6
2017-10-27T21:50:18.444Z,0.6
2017-10-27T21:52:17.287Z,0.6
2017-10-27T21:54:17.115Z,0.8
2017-10-27T21:56:16.950Z,0.8
2017-10-27T21:58:16.777Z,0.6
2017-10-27T22:00:16.632Z,0.5
2017-10-27T22:02:17.435Z,0.5
2017-10-27T22:04:17.282Z,0.4
2017-10-27T22:06:18.110Z,0.8
2017-10-27T22:08:16.923Z,0.7
2017-10-27T22:10:17.752Z,0.6
2017-10-27T22:12:16.601Z,0.5
2017-10-27T22:14:17.437Z,0.7
2017-10-27T22:16:17.267Z,0.7
2017-10-27T22:18:18.099Z,1.1
2017-10-27T22:20:20.921Z,0.7
2017-10-27T22:22:16.767Z,0.7
2017-10-27T22:24:16.604Z,0.7
2017-10-27T22:26:17.458Z,0.9
2017-10-27T22:28:17.284Z,0.6
2017-10-27T22:30:21.120Z,0.8
2017-10-27T22:32:16.989Z,0.6
2017-10-27T22:34:16.805Z,1.1
2017-10-27T22:36:17.633Z,0.9
2017-10-27T22:38:17.453Z,0.7
2017-10-27T22:40:17.293Z,0.7
2017-10-27T22:42:17.166Z,0.7
2017-10-27T22:44:16.996Z,0.7
2017-10-27T22:46:17.828Z,1
2017-10-27T22:48:16.673Z,0.5
2017-10-27T22:50:17.499Z,0.6
2017-10-27T22:52:17.333Z,0.5
2017-10-27T22:54:21.156Z,0.7
2017-10-27T22:56:17.008Z,0.8
2017-10-27T22:58:16.878Z,0.8
2017-10-27T23:00:17.708Z,0.8
2017-10-27T23:02:17.536Z,0.7
2017-10-27T23:04:17.372Z,1
2017-10-27T23:06:17.229Z,0.8
2017-10-27T23:08:17.059Z,1
2017-10-27T23:10:17.899Z,1.1
2017-10-27T23:12:16.742Z,0.6
2017-10-27T23:14:16.594Z,1
2017-10-27T23:16:17.436Z,0.7
2017-10-27T23:18:21.261Z,0.7
2017-10-27T23:20:17.160Z,1.2
2017-10-27T23:22:16.995Z,0.8
2017-10-27T23:24:16.838Z,0.8
2017-10-27T23:26:17.687Z,0.8
2017-10-27T23:28:17.575Z,1.1
2017-10-27T23:30:18.400Z,1.4
2017-10-27T23:32:17.249Z,1.1
2017-10-27T23:34:17.104Z,0.9
2017-10-27T23:36:16.970Z,1
2017-10-27T23:38:16.829Z,0.8
2017-10-27T23:40:17.656Z,0.7
2017-10-27T23:42:17.514Z,1.3
2017-10-27T23:44:17.386Z,0.9
2017-10-27T23:46:18.241Z,0.7
2017-10-27T23:48:17.072Z,1
2017-10-27T23:50:16.927Z,0.8
2017-10-27T23:52:16.791Z,0.9
2017-10-27T23:54:16.628Z,0.8
2017-10-27T23:56:17.481Z,1
2017-10-27T23:58:17.331Z,0.8
